createdAt,value
2022-11-13T00:00:00.460Z,8.72
2022-11-13T00:04:21.951Z,8.75
2022-11-13T00:08:43.505Z,8.80
2022-11-13T00:13:06.198Z,8.82
2022-11-13T00:17:27.554Z,8.73
2022-11-13T00:21:48.995Z,8.68
2022-11-13T00:26:11.569Z,8.54
2022-11-13T00:30:34.366Z,8.52
2022-11-13T00:34:55.752Z,8.35
2022-11-13T00:39:17.135Z,8.38
2022-11-13T00:43:38.813Z,8.31
2022-11-13T00:48:01.868Z,8.27
2022-11-13T00:52:23.144Z,8.43
2022-11-13T00:56:44.533Z,8.60
2022-11-13T01:01:07.151Z,8.84
2022-11-13T01:05:30.007Z,8.81
2022-11-13T01:09:51.612Z,8.68
2022-11-13T01:14:12.761Z,8.45
2022-11-13T01:18:34.218Z,8.40
2022-11-13T01:22:56.749Z,8.31
2022-11-13T01:27:18.275Z,8.24
2022-11-13T01:31:39.418Z,8.22
2022-11-13T01:36:03.798Z,8.27
2022-11-13T01:40:26.613Z,8.43
2022-11-13T01:44:49.028Z,8.54
2022-11-13T01:49:19.053Z,8.70
2022-11-13T01:53:42.088Z,8.68
2022-11-13T01:58:05.983Z,8.75
2022-11-13T02:02:27.561Z,8.80
2022-11-13T02:06:50.547Z,8.82
2022-11-13T02:11:12.489Z,8.82
2022-11-13T02:15:35.888Z,8.85
2022-11-13T02:19:59.868Z,8.73
2022-11-13T02:24:25.574Z,8.65
2022-11-13T02:28:46.725Z,8.61
2022-11-13T02:33:20.481Z,8.64
2022-11-13T02:37:41.624Z,8.61
2022-11-13T02:42:04.087Z,8.67
2022-11-13T02:46:25.291Z,8.55
2022-11-13T02:50:46.618Z,8.41
2022-11-13T03:01:27.742Z,8.30
2022-11-13T03:05:49.557Z,8.15
2022-11-13T03:10:11.593Z,8.11
2022-11-13T03:14:32.664Z,8.06
2022-11-13T03:18:56.148Z,8.02
2022-11-13T03:23:17.256Z,7.87
2022-11-13T03:27:38.419Z,7.82
2022-11-13T03:31:59.493Z,7.73
2022-11-13T03:36:22.174Z,7.63
2022-11-13T03:40:43.376Z,7.65
2022-11-13T03:45:04.718Z,7.66
2022-11-13T03:49:26.274Z,7.63
2022-11-13T03:53:48.997Z,7.53
2022-11-13T03:58:10.463Z,7.44
2022-11-13T04:02:31.818Z,7.32
2022-11-13T04:06:53.057Z,7.23
2022-11-13T04:11:16.094Z,7.25
2022-11-13T04:15:37.333Z,7.13
2022-11-13T04:19:58.510Z,7.01
2022-11-13T04:24:19.710Z,7.00
2022-11-13T04:28:42.320Z,7.05
2022-11-13T04:33:03.620Z,6.94
2022-11-13T04:37:24.606Z,6.83
2022-11-13T04:42:03.011Z,6.67
2022-11-13T04:46:25.736Z,6.28
2022-11-13T04:50:47.621Z,6.19
2022-11-13T04:55:10.187Z,6.19
2022-11-13T04:59:31.776Z,6.27
2022-11-13T05:03:54.674Z,6.30
2022-11-13T05:08:16.530Z,6.34
2022-11-13T05:12:37.765Z,6.25
2022-11-13T05:16:58.767Z,6.21
2022-11-13T05:21:21.538Z,6.20
2022-11-13T05:25:42.762Z,6.12
2022-11-13T05:30:04.414Z,5.98
2022-11-13T05:34:25.622Z,5.74
2022-11-13T05:38:48.464Z,5.47
2022-11-13T05:43:09.877Z,5.21
2022-11-13T05:47:31.408Z,5.28
2022-11-13T05:51:55.105Z,5.53
2022-11-13T05:56:18.834Z,5.47
2022-11-13T06:00:39.980Z,5.70
2022-11-13T06:05:01.451Z,5.75
2022-11-13T06:09:22.629Z,5.91
2022-11-13T06:13:45.682Z,6.02
2022-11-13T06:18:07.138Z,6.24
2022-11-13T06:22:28.567Z,6.29
2022-11-13T06:26:49.951Z,6.32
2022-11-13T06:31:13.151Z,6.31
2022-11-13T06:35:34.429Z,6.40
2022-11-13T06:39:56.056Z,6.44
2022-11-13T06:44:17.721Z,6.36
2022-11-13T06:48:40.561Z,6.22
2022-11-13T06:53:02.042Z,6.33
2022-11-13T06:57:23.495Z,6.30
2022-11-13T07:01:45.033Z,6.20
2022-11-13T07:06:08.838Z,6.13
2022-11-13T07:10:30.031Z,6.26
2022-11-13T07:14:51.383Z,6.26
2022-11-13T07:19:12.960Z,6.44
2022-11-13T07:23:37.084Z,6.74
2022-11-13T07:27:58.310Z,7.71
2022-11-13T07:32:19.786Z,8.17
2022-11-13T07:36:41.412Z,7.73
2022-11-13T07:41:04.386Z,7.81
2022-11-13T07:45:25.444Z,8.41
2022-11-13T07:49:46.852Z,8.98
2022-11-13T07:54:08.765Z,9.11
2022-11-13T07:58:31.899Z,9.21
2022-11-13T08:02:54.171Z,8.73
2022-11-13T08:07:15.854Z,9.31
2022-11-13T08:11:37.858Z,10.03
2022-11-13T08:16:01.828Z,10.08
2022-11-13T08:20:23.580Z,10.57
2022-11-13T08:24:45.200Z,11.03
2022-11-13T08:29:07.155Z,11.14
2022-11-13T08:33:30.606Z,12.36
2022-11-13T08:37:52.203Z,12.40
2022-11-13T08:42:14.238Z,12.86
2022-11-13T08:46:35.541Z,12.55
2022-11-13T08:50:58.866Z,13.03
2022-11-13T08:55:20.370Z,13.36
2022-11-13T08:59:41.936Z,12.47
2022-11-13T09:04:03.886Z,13.39
2022-11-13T09:08:27.547Z,13.41
2022-11-13T09:12:49.490Z,13.87
2022-11-13T09:17:11.322Z,14.36
2022-11-13T09:21:33.275Z,14.55
2022-11-13T09:25:57.068Z,14.17
2022-11-13T09:30:18.953Z,14.42
2022-11-13T09:34:40.715Z,14.37
2022-11-13T09:39:02.346Z,15.75
2022-11-13T09:43:32.250Z,15.45
2022-11-13T09:47:56.515Z,15.93
2022-11-13T09:52:22.354Z,15.81
2022-11-13T09:56:51.087Z,16.12
2022-11-13T10:01:23.125Z,16.45
2022-11-13T10:05:52.716Z,16.37
2022-11-13T10:10:55.519Z,16.58
2022-11-13T10:15:18.868Z,16.54
2022-11-13T10:19:48.938Z,16.13
2022-11-13T10:24:17.264Z,16.50
2022-11-13T10:28:55.791Z,16.50
2022-11-13T10:33:20.443Z,16.20
2022-11-13T10:37:55.259Z,17.41
2022-11-13T10:42:24.840Z,17.85
2022-11-13T10:46:46.370Z,16.15
2022-11-13T10:51:22.834Z,17.85
2022-11-13T10:55:47.424Z,17.67
2022-11-13T11:00:21.911Z,17.91
2022-11-13T11:04:43.607Z,18.29
2022-11-13T11:09:20.339Z,18.62
2022-11-13T11:13:43.230Z,18.33
2022-11-13T11:18:11.038Z,17.59
2022-11-13T11:22:36.173Z,18.39
2022-11-13T11:27:04.448Z,18.71
2022-11-13T11:31:34.279Z,18.56
2022-11-13T11:36:03.817Z,19.22
2022-11-13T11:40:31.479Z,19.68
2022-11-13T11:45:04.922Z,20.33
2022-11-13T11:49:28.004Z,19.59
2022-11-13T11:53:59.885Z,20.21
2022-11-13T11:58:35.865Z,20.42
2022-11-13T12:03:40.312Z,21.02
2022-11-13T12:08:14.719Z,20.68
2022-11-13T12:12:51.186Z,20.71
2022-11-13T12:17:30.926Z,21.11
2022-11-13T12:22:06.171Z,19.28
2022-11-13T12:26:32.807Z,20.64
2022-11-13T12:31:06.652Z,20.71
2022-11-13T12:35:28.605Z,21.36
2022-11-13T12:39:57.306Z,21.88
2022-11-13T12:44:29.035Z,20.55
2022-11-13T12:48:50.691Z,22.19
2022-11-13T12:53:13.058Z,23.00
2022-11-13T12:57:34.676Z,23.43
2022-11-13T13:02:00.977Z,22.03
2022-11-13T13:06:29.610Z,24.25
2022-11-13T13:10:58.609Z,23.46
2022-11-13T13:15:29.211Z,23.24
2022-11-13T13:20:00.914Z,20.50
2022-11-13T13:24:30.341Z,22.17
2022-11-13T13:28:53.299Z,21.79
2022-11-13T13:33:21.297Z,20.73
2022-11-13T13:37:47.942Z,19.87
2022-11-13T13:42:17.909Z,21.04
2022-11-13T13:46:39.144Z,21.00
2022-11-13T13:51:01.467Z,20.32
2022-11-13T13:55:27.817Z,20.36
2022-11-13T13:59:50.839Z,20.25
2022-11-13T14:04:14.757Z,20.82
2022-11-13T14:08:36.645Z,21.90
2022-11-13T14:12:59.558Z,21.69
2022-11-13T14:17:23.861Z,21.98
2022-11-13T14:21:45.767Z,21.22
2022-11-13T14:26:07.154Z,20.65
2022-11-13T14:30:31.429Z,21.17
2022-11-13T14:34:53.834Z,20.39
2022-11-13T14:39:19.992Z,20.19
2022-11-13T14:43:49.661Z,21.43
2022-11-13T14:48:20.381Z,19.50
2022-11-13T14:52:41.873Z,20.21
2022-11-13T14:57:10.403Z,19.27
2022-11-13T15:01:33.752Z,18.89
2022-11-13T15:05:56.657Z,20.11
2022-11-13T15:10:19.847Z,19.97
2022-11-13T15:14:42.416Z,19.45
2022-11-13T15:19:04.947Z,19.41
2022-11-13T15:23:29.483Z,18.24
2022-11-13T15:27:51.373Z,18.00
2022-11-13T15:32:13.783Z,17.58
2022-11-13T15:36:35.218Z,16.80
2022-11-13T15:40:58.277Z,16.12
2022-11-13T15:45:19.859Z,14.68
2022-11-13T15:49:56.570Z,14.35
2022-11-13T15:54:26.483Z,13.89
2022-11-13T15:58:49.326Z,13.24
2022-11-13T16:03:12.131Z,12.95
2022-11-13T16:07:33.759Z,12.67
2022-11-13T16:11:56.305Z,12.19
2022-11-13T16:16:24.507Z,11.50
2022-11-13T16:20:45.949Z,11.20
2022-11-13T16:25:09.979Z,10.96
2022-11-13T16:29:31.446Z,10.64
2022-11-13T16:33:54.122Z,10.16
2022-11-13T16:38:15.828Z,9.93
2022-11-13T16:42:37.537Z,9.85
2022-11-13T16:46:59.123Z,9.84
2022-11-13T16:51:22.674Z,9.75
2022-11-13T16:55:44.098Z,9.65
2022-11-13T17:00:07.089Z,9.33
2022-11-13T17:04:28.400Z,9.05
2022-11-13T17:08:52.188Z,9.11
2022-11-13T17:13:13.413Z,8.92
2022-11-13T17:17:34.926Z,8.61
2022-11-13T17:21:56.375Z,8.48
2022-11-13T17:26:19.181Z,8.24
2022-11-13T17:30:40.607Z,8.10
2022-11-13T17:35:02.298Z,7.96
2022-11-13T17:39:23.726Z,7.91
2022-11-13T17:43:46.490Z,7.75
2022-11-13T17:48:08.151Z,7.51
2022-11-13T17:52:29.768Z,7.46
2022-11-13T17:56:51.195Z,7.68
2022-11-13T18:01:14.611Z,7.56
2022-11-13T18:05:40.465Z,7.31
2022-11-13T18:10:02.702Z,7.24
2022-11-13T18:14:24.279Z,7.44
2022-11-13T18:18:48.862Z,7.25
2022-11-13T18:23:10.538Z,7.21
2022-11-13T18:27:31.953Z,6.99
2022-11-13T18:31:53.652Z,6.80
2022-11-13T18:36:16.677Z,6.84
2022-11-13T18:40:41.753Z,6.58
2022-11-13T18:45:06.269Z,6.45
2022-11-13T18:49:27.895Z,6.30
2022-11-13T18:53:51.882Z,6.56
2022-11-13T18:58:13.107Z,6.41
2022-11-13T19:02:34.700Z,6.22
2022-11-13T19:06:57.438Z,6.20
2022-11-13T19:11:20.643Z,6.00
2022-11-13T19:15:41.745Z,5.88
2022-11-13T19:20:03.354Z,5.87
2022-11-13T19:24:24.949Z,5.95
2022-11-13T19:28:48.964Z,5.90
2022-11-13T19:33:10.340Z,5.76
2022-11-13T19:37:31.917Z,5.75
2022-11-13T19:41:53.554Z,6.00
2022-11-13T19:46:17.177Z,5.74
2022-11-13T19:50:38.957Z,5.57
2022-11-13T19:55:00.167Z,5.66
2022-11-13T19:59:21.881Z,5.53
2022-11-13T20:03:45.096Z,5.47
2022-11-13T20:08:06.769Z,5.23
2022-11-13T20:12:29.628Z,5.35
2022-11-13T20:16:50.906Z,5.10
2022-11-13T20:21:13.875Z,5.14
2022-11-13T20:25:35.179Z,5.14
2022-11-13T20:29:57.551Z,5.03
2022-11-13T20:34:19.305Z,4.89
2022-11-13T20:38:42.141Z,4.92
2022-11-13T20:43:04.647Z,4.92
2022-11-13T20:47:26.608Z,4.75
2022-11-13T20:51:47.874Z,4.65
2022-11-13T20:56:10.772Z,4.67
2022-11-13T21:00:32.568Z,4.70
2022-11-13T21:04:54.170Z,4.75
2022-11-13T21:09:15.547Z,4.81
2022-11-13T21:13:38.327Z,4.65
2022-11-13T21:17:59.987Z,4.60
2022-11-13T21:22:21.414Z,4.79
2022-11-13T21:26:42.827Z,4.84
2022-11-13T21:31:06.671Z,4.79
2022-11-13T21:35:28.896Z,4.81
2022-11-13T21:39:50.558Z,4.65
2022-11-13T21:44:12.122Z,4.67
2022-11-13T21:48:34.980Z,4.63
2022-11-13T21:52:56.638Z,4.55
2022-11-13T21:57:19.093Z,4.39
2022-11-13T22:01:40.740Z,4.41
2022-11-13T22:06:20.463Z,4.38
2022-11-13T22:10:41.808Z,4.32
2022-11-13T22:15:03.382Z,4.19
2022-11-13T22:19:27.844Z,4.21
2022-11-13T22:23:52.239Z,4.59
2022-11-13T22:28:13.758Z,5.18
2022-11-13T22:32:35.118Z,5.40
2022-11-13T22:36:56.597Z,5.78
2022-11-13T22:41:23.223Z,5.74
2022-11-13T22:45:45.318Z,5.37
2022-11-13T22:50:07.139Z,4.92
2022-11-13T22:54:28.303Z,4.95
2022-11-13T22:58:51.433Z,4.86
2022-11-13T23:03:13.075Z,5.14
2022-11-13T23:07:34.520Z,5.07
2022-11-13T23:11:56.123Z,4.86
2022-11-13T23:16:19.074Z,4.61
2022-11-13T23:20:40.606Z,4.41
2022-11-13T23:25:02.119Z,4.26
2022-11-13T23:29:23.542Z,4.14
2022-11-13T23:33:46.550Z,4.08
2022-11-13T23:38:07.970Z,3.92
2022-11-13T23:42:53.656Z,3.76
2022-11-13T23:47:10.817Z,3.66
2022-11-13T23:51:33.547Z,3.64
2022-11-13T23:55:54.960Z,3.75
